Gulden Leeuw — PCBH — position and weather

sailwx.info

Track history (hours):
 
Tides and Currents Weather Stations Pressure Air Temp Water Temp Dewpoint Dewpoint Depression Visibility Wind Speed Wind Dir Waves Ship Positions

Gulden Leeuw

Last reported at 2018-Jun-20 11:48 UTC. Time now 2018-Jun-20 15:10 UTC.
Position N 54°29' E 010°15'.

Length 57 m; draft 3.6 m.

Type: Sailing vessel. MMSI: 246709000.

Date/timePositionNaut miles runAvg speedWind from/ knotsBaromVisibWave heightAir tempDewpointWater temp
2018-Jun-20 11:48N 54°29' E 010°15'2 7.5
2018-Jun-20 11:29N 54°30' E 010°18'4 7.7
2018-Jun-20 11:01N 54°34' E 010°19'4 7.8
2018-Jun-20 10:31N 54°37' E 010°22'4 7.9
2018-Jun-20 10:01N 54°41' E 010°25'4 7.3
2018-Jun-20 09:31N 54°44' E 010°28'4 7.2
2018-Jun-20 09:00N 54°48' E 010°30'3 6.8
2018-Jun-20 08:30N 54°51' E 010°33'1 1.8
2018-Jun-20 07:54N 54°51' E 010°31'0 0.0
2018-Jun-20 07:30N 54°51' E 010°31'0 0.0
2018-Jun-20 06:57N 54°51' E 010°31'0 0.0
2018-Jun-20 06:18N 54°51' E 010°31'0 0.0
2018-Jun-20 05:57N 54°51' E 010°31'0 0.0
2018-Jun-20 05:30N 54°51' E 010°31'0 0.0
2018-Jun-20 04:57N 54°51' E 010°31'0 0.0
2018-Jun-20 04:30N 54°51' E 010°31'0 0.0
2018-Jun-20 03:54N 54°51' E 010°31'0 0.0
2018-Jun-20 03:27N 54°51' E 010°31'0 0.0
2018-Jun-20 03:00N 54°51' E 010°31'0 0.0
2018-Jun-20 02:30N 54°51' E 010°31'0 0.0
2018-Jun-20 02:00N 54°51' E 010°31'0 0.0
2018-Jun-20 01:27N 54°51' E 010°31'0 0.0
2018-Jun-20 01:00N 54°51' E 010°31'0 0.0
2018-Jun-20 00:27N 54°51' E 010°31'0 0.0
2018-Jun-20 00:00N 54°51' E 010°31'0 0.0
2018-Jun-19 23:30N 54°51' E 010°31'0 0.0
2018-Jun-19 23:00N 54°51' E 010°31'0 0.0
2018-Jun-19 22:24N 54°51' E 010°31'0 0.0
2018-Jun-19 22:00N 54°51' E 010°31'0 0.0
2018-Jun-19 21:30N 54°51' E 010°31'0 0.0
2018-Jun-19 21:00N 54°51' E 010°31'0 0.0
2018-Jun-19 20:30N 54°51' E 010°31'0 0.0
2018-Jun-19 20:00N 54°51' E 010°31'0 0.0
2018-Jun-19 19:30N 54°51' E 010°31'0 0.0
2018-Jun-19 18:57N 54°51' E 010°31'0 0.0
2018-Jun-19 18:30N 54°51' E 010°31'0 0.0
2018-Jun-19 17:57N 54°51' E 010°31'0 0.0
2018-Jun-19 17:30N 54°51' E 010°31'0 0.0
2018-Jun-19 16:57N 54°51' E 010°31'0 0.0
2018-Jun-19 16:30N 54°51' E 010°31'0 0.0
2018-Jun-19 16:00N 54°51' E 010°31'0 0.0
2018-Jun-19 15:24N 54°51' E 010°31'0 0.0
2018-Jun-19 15:00N 54°51' E 010°31'0 0.0
2018-Jun-19 14:27N 54°51' E 010°31'0 0.0
2018-Jun-19 14:00N 54°51' E 010°31'0 0.0
2018-Jun-19 13:24N 54°51' E 010°31'0 0.0
2018-Jun-19 13:00N 54°51' E 010°31'0 0.0
2018-Jun-19 12:30N 54°51' E 010°31'0 0.0
2018-Jun-19 12:00N 54°51' E 010°31'0 0.0
2018-Jun-19 11:30N 54°51' E 010°31'0 0.0
2018-Jun-19 10:57N 54°51' E 010°31'0 0.0
2018-Jun-19 10:30N 54°51' E 010°31'0 0.0
2018-Jun-19 10:00N 54°51' E 010°31'0 0.2
2018-Jun-19 09:30N 54°51' E 010°31'3 5.7
2018-Jun-19 09:01N 54°49' E 010°34'3 6.6
2018-Jun-19 08:31N 54°46' E 010°37'3 6.3
2018-Jun-19 08:00N 54°43' E 010°39'2 4.3
2018-Jun-19 07:31N 54°43' E 010°43'3 6.1
2018-Jun-19 07:00N 54°45' E 010°46'4 7.3
2018-Jun-19 06:30N 54°49' E 010°48'4 7.4
2018-Jun-19 06:00N 54°52' E 010°50'4 7.2
2018-Jun-19 05:30N 54°56' E 010°52'3 6.5
2018-Jun-19 05:01N 54°59' E 010°54'3 6.5
2018-Jun-19 04:30N 55°02' E 010°56'3 6.3
2018-Jun-19 04:00N 55°05' E 010°58'3 6.2
2018-Jun-19 03:30N 55°08' E 010°59'4 6.8
2018-Jun-19 02:59N 55°11' E 011°01'3 6.6
2018-Jun-19 02:30N 55°14' E 011°02'107 6.0
2018-Jun-18 08:33N 56°59' E 010°19'1 6.6
2018-Jun-18 08:25N 56°59' E 010°18'3 7.0
2018-Jun-18 08:00N 56°59' E 010°13'3 6.4
2018-Jun-18 07:29N 57°01' E 010°08'3 6.7
2018-Jun-18 06:59N 57°03' E 010°03'3 5.7
2018-Jun-18 06:31N 57°05' E 009°59'3 2.5
2018-Jun-18 05:26N 57°03' E 009°56'0 0.0
2018-Jun-18 03:32N 57°03' E 009°56'0 0.0
2018-Jun-18 03:08N 57°03' E 009°56'0 0.0
2018-Jun-17 20:38N 57°03' E 009°56'0 0.0
2018-Jun-17 20:14N 57°03' E 009°56'0 0.0
2018-Jun-17 15:23N 57°03' E 009°56'0 0.0
2018-Jun-17 13:50N 57°03' E 009°56'0 0.0
2018-Jun-17 11:26N 57°03' E 009°56'0 0.0
2018-Jun-17 08:02N 57°03' E 009°56'0 0.0
2018-Jun-17 07:50N 57°03' E 009°56'0 0.0
2018-Jun-17 04:20N 57°03' E 009°56'0 0.0
2018-Jun-17 03:56N 57°03' E 009°56'0 0.0
2018-Jun-17 03:29N 57°03' E 009°56'0 0.0
2018-Jun-17 01:29N 57°03' E 009°56'0 0.0
2018-Jun-17 00:44N 57°03' E 009°56'0 0.0
2018-Jun-17 00:26N 57°03' E 009°56'0 0.0
2018-Jun-16 22:17N 57°03' E 009°56'0 0.0
2018-Jun-16 14:50N 57°03' E 009°56'0 0.0
2018-Jun-16 13:38N 57°03' E 009°56'0 0.0
2018-Jun-16 13:08N 57°03' E 009°56'0 0.0
2018-Jun-16 12:50N 57°03' E 009°56'0 0.0
2018-Jun-16 10:08N 57°03' E 009°56'0 0.0
2018-Jun-16 09:50N 57°03' E 009°56'0 0.0
2018-Jun-16 09:20N 57°03' E 009°56'0 0.0
2018-Jun-16 08:29N 57°03' E 009°56'0 0.0
2018-Jun-16 07:50N 57°03' E 009°56'0 0.0
2018-Jun-16 07:23N 57°03' E 009°56'0 0.0
2018-Jun-16 06:56N 57°03' E 009°56'0 0.0
2018-Jun-16 05:35N 57°03' E 009°56'0 0.0
2018-Jun-16 03:35N 57°03' E 009°56'0 0.0
2018-Jun-16 03:26N 57°03' E 009°56'0 0.0
2018-Jun-15 23:04N 57°03' E 009°56'0 0.0
2018-Jun-15 22:53N 57°03' E 009°56'0 0.0
2018-Jun-15 21:46N 57°03' E 009°56'0 0.0
2018-Jun-15 21:25N 57°03' E 009°56'0 0.0
2018-Jun-15 20:41N 57°03' E 009°56'0 0.0
2018-Jun-15 20:14N 57°03' E 009°56'0 0.0
2018-Jun-15 17:43N 57°03' E 009°56'0 0.0
2018-Jun-15 17:19N 57°03' E 009°56'0 0.0
2018-Jun-15 16:58N 57°03' E 009°56'0 0.0
2018-Jun-15 14:34N 57°03' E 009°56'0 0.0
2018-Jun-15 14:28N 57°03' E 009°56'0 0.0
2018-Jun-15 13:32N 57°03' E 009°56'0 0.0
2018-Jun-15 13:22N 57°03' E 009°56'0 0.0
2018-Jun-15 12:13N 57°03' E 009°56'0 0.0
2018-Jun-15 09:59N 57°03' E 009°56'0 0.0
2018-Jun-15 09:28N 57°03' E 009°56'0 0.0
2018-Jun-15 08:37N 57°03' E 009°56'0 0.0
2018-Jun-15 08:25N 57°03' E 009°56'0 0.1
2018-Jun-15 05:55N 57°03' E 009°55'0 0.0
2018-Jun-15 05:28N 57°03' E 009°55'0 0.0
2018-Jun-15 04:19N 57°03' E 009°55'0 0.0
2018-Jun-15 03:58N 57°03' E 009°55'0 0.0
2018-Jun-15 01:58N 57°03' E 009°55'0 0.0
2018-Jun-15 01:22N 57°03' E 009°55'0 0.0
2018-Jun-15 00:16N 57°03' E 009°55'0 0.0
2018-Jun-14 23:52N 57°03' E 009°55'0 0.0
2018-Jun-14 21:28N 57°03' E 009°55'0 0.0
2018-Jun-14 20:46N 57°03' E 009°55'0 0.0
2018-Jun-14 20:28N 57°03' E 009°55'0 0.0
2018-Jun-14 16:58N 57°03' E 009°55'0 0.0
2018-Jun-14 16:16N 57°03' E 009°55'0 0.0
2018-Jun-14 15:58N 57°03' E 009°55'0 0.0
2018-Jun-14 14:55N 57°03' E 009°55'0 0.0
2018-Jun-14 14:10N 57°03' E 009°55'0 0.0
2018-Jun-14 13:55N 57°03' E 009°55'0 0.0
2018-Jun-14 13:25N 57°03' E 009°55'0 0.0
2018-Jun-14 12:49N 57°03' E 009°55'0 0.0
2018-Jun-14 10:49N 57°03' E 009°55'0 0.0
2018-Jun-14 10:25N 57°03' E 009°55'0 0.0
2018-Jun-14 07:40N 57°03' E 009°55'0 0.0
2018-Jun-14 02:43N 57°03' E 009°55'0 0.0
2018-Jun-14 01:58N 57°03' E 009°55'0 0.0
2018-Jun-14 01:19N 57°03' E 009°55'0 0.0
2018-Jun-14 00:13N 57°03' E 009°55'0 0.0
2018-Jun-13 23:43N 57°03' E 009°55'0 0.0
2018-Jun-13 23:19N 57°03' E 009°55'0 0.0
2018-Jun-13 22:40N 57°03' E 009°55'0 0.0
2018-Jun-13 22:22N 57°03' E 009°55'0 0.0
2018-Jun-13 21:43N 57°03' E 009°55'0 0.0
2018-Jun-13 21:07N 57°03' E 009°55'0 0.0
2018-Jun-13 20:55N 57°03' E 009°55'0 0.0
2018-Jun-13 20:28N 57°03' E 009°55'0 0.0
2018-Jun-13 18:58N 57°03' E 009°55'0 0.0
2018-Jun-13 17:16N 57°03' E 009°55'0 0.0
2018-Jun-13 16:55N 57°03' E 009°55'0 0.0
2018-Jun-13 13:13N 57°03' E 009°55'0 0.0
2018-Jun-13 12:37N 57°03' E 009°55'0 0.0
2018-Jun-13 12:28N 57°03' E 009°55'0 0.0
2018-Jun-13 10:19N 57°03' E 009°55'0 0.0
2018-Jun-13 09:49N 57°03' E 009°55'0 0.0
2018-Jun-13 09:25N 57°03' E 009°55'0 0.0
2018-Jun-13 08:41N 57°03' E 009°55'0 0.1
2018-Jun-13 08:23N 57°03' E 009°55'1 2.4
2018-Jun-13 08:00N 57°03' E 009°57'3 6.1
2018-Jun-13 07:30N 57°04' E 010°02'4 8.6
2018-Jun-13 07:00N 57°01' E 010°08'4 7.8
2018-Jun-13 06:29N 56°59' E 010°14'2 0.2
2018-Jun-12 18:30N 56°59' E 010°18'0 0.0
2018-Jun-12 17:56N 56°59' E 010°18'0 0.0
2018-Jun-12 17:24N 56°59' E 010°18'0 0.0
2018-Jun-12 16:06N 56°59' E 010°18'0 0.0
2018-Jun-12 16:00N 56°59' E 010°18'0 0.1
2018-Jun-12 15:29N 56°59' E 010°18'3 6.1
2018-Jun-12 15:00N 56°58' E 010°23'103 6.0
2018-Jun-11 21:53N 55°17' E 011°04'2 4.6
2018-Jun-11 21:30N 55°15' E 011°05'2 4.4
2018-Jun-11 20:57N 55°13' E 011°06'2 4.9
2018-Jun-11 20:30N 55°11' E 011°05'3 5.3
2018-Jun-11 19:59N 55°08' E 011°03'3 5.7
2018-Jun-11 19:30N 55°05' E 011°03'3 5.9
2018-Jun-11 19:01N 55°03' E 011°02'3 5.7
2018-Jun-11 18:31N 54°60' E 011°01'3 6.7
2018-Jun-11 18:01N 54°57' E 010°58'3 6.7
2018-Jun-11 17:31N 54°54' E 010°54'3 6.0
2018-Jun-11 17:01N 54°52' E 010°53'3 5.4
2018-Jun-11 16:31N 54°49' E 010°53'3 6.0
2018-Jun-11 16:01N 54°46' E 010°52'3 5.9
2018-Jun-11 15:30N 54°43' E 010°52'3 6.2
2018-Jun-11 15:01N 54°41' E 010°48'4 7.2
2018-Jun-11 14:31N 54°39' E 010°43'3 6.3
2018-Jun-11 14:01N 54°37' E 010°38'3 6.6
2018-Jun-11 13:30N 54°35' E 010°34'19 0.8
2018-Jun-10 14:30N 54°22' E 010°09'0 0.0
2018-Jun-10 13:11N 54°22' E 010°09'0 0.0
2018-Jun-10 12:46N 54°22' E 010°09'0 0.0
2018-Jun-10 12:21N 54°22' E 010°09'0 0.1
2018-Jun-10 11:58N 54°22' E 010°09'  
Track history (hours):
 
Tides and Currents Weather Stations Pressure Air Temp Water Temp Dewpoint Dewpoint Depression Visibility Wind Speed Wind Dir Waves Ship Positions

Gulden Leeuw

Last reported at 2018-Jun-20 11:48 UTC. Time now 2018-Jun-20 15:10 UTC.
Position N 54°29' E 010°15'.

Length 57 m; draft 3.6 m.

Type: Sailing vessel. MMSI: 246709000.

Date/timePositionNaut miles runAvg speedWind from/ knotsBaromVisibWave heightAir tempDewpointWater temp
2018-Jun-20 11:48N 54°29' E 010°15'2 7.5
2018-Jun-20 11:29N 54°30' E 010°18'4 7.7
2018-Jun-20 11:01N 54°34' E 010°19'4 7.8
2018-Jun-20 10:31N 54°37' E 010°22'4 7.9
2018-Jun-20 10:01N 54°41' E 010°25'4 7.3
2018-Jun-20 09:31N 54°44' E 010°28'4 7.2
2018-Jun-20 09:00N 54°48' E 010°30'3 6.8
2018-Jun-20 08:30N 54°51' E 010°33'1 1.8
2018-Jun-20 07:54N 54°51' E 010°31'0 0.0
2018-Jun-20 07:30N 54°51' E 010°31'0 0.0
2018-Jun-20 06:57N 54°51' E 010°31'0 0.0
2018-Jun-20 06:18N 54°51' E 010°31'0 0.0
2018-Jun-20 05:57N 54°51' E 010°31'0 0.0
2018-Jun-20 05:30N 54°51' E 010°31'0 0.0
2018-Jun-20 04:57N 54°51' E 010°31'0 0.0
2018-Jun-20 04:30N 54°51' E 010°31'0 0.0
2018-Jun-20 03:54N 54°51' E 010°31'0 0.0
2018-Jun-20 03:27N 54°51' E 010°31'0 0.0
2018-Jun-20 03:00N 54°51' E 010°31'0 0.0
2018-Jun-20 02:30N 54°51' E 010°31'0 0.0
2018-Jun-20 02:00N 54°51' E 010°31'0 0.0
2018-Jun-20 01:27N 54°51' E 010°31'0 0.0
2018-Jun-20 01:00N 54°51' E 010°31'0 0.0
2018-Jun-20 00:27N 54°51' E 010°31'0 0.0
2018-Jun-20 00:00N 54°51' E 010°31'0 0.0
2018-Jun-19 23:30N 54°51' E 010°31'0 0.0
2018-Jun-19 23:00N 54°51' E 010°31'0 0.0
2018-Jun-19 22:24N 54°51' E 010°31'0 0.0
2018-Jun-19 22:00N 54°51' E 010°31'0 0.0
2018-Jun-19 21:30N 54°51' E 010°31'0 0.0
2018-Jun-19 21:00N 54°51' E 010°31'0 0.0
2018-Jun-19 20:30N 54°51' E 010°31'0 0.0
2018-Jun-19 20:00N 54°51' E 010°31'0 0.0
2018-Jun-19 19:30N 54°51' E 010°31'0 0.0
2018-Jun-19 18:57N 54°51' E 010°31'0 0.0
2018-Jun-19 18:30N 54°51' E 010°31'0 0.0
2018-Jun-19 17:57N 54°51' E 010°31'0 0.0
2018-Jun-19 17:30N 54°51' E 010°31'0 0.0
2018-Jun-19 16:57N 54°51' E 010°31'0 0.0
2018-Jun-19 16:30N 54°51' E 010°31'0 0.0
2018-Jun-19 16:00N 54°51' E 010°31'0 0.0
2018-Jun-19 15:24N 54°51' E 010°31'0 0.0
2018-Jun-19 15:00N 54°51' E 010°31'0 0.0
2018-Jun-19 14:27N 54°51' E 010°31'0 0.0
2018-Jun-19 14:00N 54°51' E 010°31'0 0.0
2018-Jun-19 13:24N 54°51' E 010°31'0 0.0
2018-Jun-19 13:00N 54°51' E 010°31'0 0.0
2018-Jun-19 12:30N 54°51' E 010°31'0 0.0
2018-Jun-19 12:00N 54°51' E 010°31'0 0.0
2018-Jun-19 11:30N 54°51' E 010°31'0 0.0
2018-Jun-19 10:57N 54°51' E 010°31'0 0.0
2018-Jun-19 10:30N 54°51' E 010°31'0 0.0
2018-Jun-19 10:00N 54°51' E 010°31'0 0.2
2018-Jun-19 09:30N 54°51' E 010°31'3 5.7
2018-Jun-19 09:01N 54°49' E 010°34'3 6.6
2018-Jun-19 08:31N 54°46' E 010°37'3 6.3
2018-Jun-19 08:00N 54°43' E 010°39'2 4.3
2018-Jun-19 07:31N 54°43' E 010°43'3 6.1
2018-Jun-19 07:00N 54°45' E 010°46'4 7.3
2018-Jun-19 06:30N 54°49' E 010°48'4 7.4
2018-Jun-19 06:00N 54°52' E 010°50'4 7.2
2018-Jun-19 05:30N 54°56' E 010°52'3 6.5
2018-Jun-19 05:01N 54°59' E 010°54'3 6.5
2018-Jun-19 04:30N 55°02' E 010°56'3 6.3
2018-Jun-19 04:00N 55°05' E 010°58'3 6.2
2018-Jun-19 03:30N 55°08' E 010°59'4 6.8
2018-Jun-19 02:59N 55°11' E 011°01'3 6.6
2018-Jun-19 02:30N 55°14' E 011°02'107 6.0
2018-Jun-18 08:33N 56°59' E 010°19'1 6.6
2018-Jun-18 08:25N 56°59' E 010°18'3 7.0
2018-Jun-18 08:00N 56°59' E 010°13'3 6.4
2018-Jun-18 07:29N 57°01' E 010°08'3 6.7
2018-Jun-18 06:59N 57°03' E 010°03'3 5.7
2018-Jun-18 06:31N 57°05' E 009°59'3 2.5
2018-Jun-18 05:26N 57°03' E 009°56'0 0.0
2018-Jun-18 03:32N 57°03' E 009°56'0 0.0
2018-Jun-18 03:08N 57°03' E 009°56'0 0.0
2018-Jun-17 20:38N 57°03' E 009°56'0 0.0
2018-Jun-17 20:14N 57°03' E 009°56'0 0.0
2018-Jun-17 15:23N 57°03' E 009°56'0 0.0
2018-Jun-17 13:50N 57°03' E 009°56'0 0.0
2018-Jun-17 11:26N 57°03' E 009°56'0 0.0
2018-Jun-17 08:02N 57°03' E 009°56'0 0.0
2018-Jun-17 07:50N 57°03' E 009°56'0 0.0
2018-Jun-17 04:20N 57°03' E 009°56'0 0.0
2018-Jun-17 03:56N 57°03' E 009°56'0 0.0
2018-Jun-17 03:29N 57°03' E 009°56'0 0.0
2018-Jun-17 01:29N 57°03' E 009°56'0 0.0
2018-Jun-17 00:44N 57°03' E 009°56'0 0.0
2018-Jun-17 00:26N 57°03' E 009°56'0 0.0
2018-Jun-16 22:17N 57°03' E 009°56'0 0.0
2018-Jun-16 14:50N 57°03' E 009°56'0 0.0
2018-Jun-16 13:38N 57°03' E 009°56'0 0.0
2018-Jun-16 13:08N 57°03' E 009°56'0 0.0
2018-Jun-16 12:50N 57°03' E 009°56'0 0.0
2018-Jun-16 10:08N 57°03' E 009°56'0 0.0
2018-Jun-16 09:50N 57°03' E 009°56'0 0.0
2018-Jun-16 09:20N 57°03' E 009°56'0 0.0
2018-Jun-16 08:29N 57°03' E 009°56'0 0.0
2018-Jun-16 07:50N 57°03' E 009°56'0 0.0
2018-Jun-16 07:23N 57°03' E 009°56'0 0.0
2018-Jun-16 06:56N 57°03' E 009°56'0 0.0
2018-Jun-16 05:35N 57°03' E 009°56'0 0.0
2018-Jun-16 03:35N 57°03' E 009°56'0 0.0
2018-Jun-16 03:26N 57°03' E 009°56'0 0.0
2018-Jun-15 23:04N 57°03' E 009°56'0 0.0
2018-Jun-15 22:53N 57°03' E 009°56'0 0.0
2018-Jun-15 21:46N 57°03' E 009°56'0 0.0
2018-Jun-15 21:25N 57°03' E 009°56'0 0.0
2018-Jun-15 20:41N 57°03' E 009°56'0 0.0
2018-Jun-15 20:14N 57°03' E 009°56'0 0.0
2018-Jun-15 17:43N 57°03' E 009°56'0 0.0
2018-Jun-15 17:19N 57°03' E 009°56'0 0.0
2018-Jun-15 16:58N 57°03' E 009°56'0 0.0
2018-Jun-15 14:34N 57°03' E 009°56'0 0.0
2018-Jun-15 14:28N 57°03' E 009°56'0 0.0
2018-Jun-15 13:32N 57°03' E 009°56'0 0.0
2018-Jun-15 13:22N 57°03' E 009°56'0 0.0
2018-Jun-15 12:13N 57°03' E 009°56'0 0.0
2018-Jun-15 09:59N 57°03' E 009°56'0 0.0
2018-Jun-15 09:28N 57°03' E 009°56'0 0.0
2018-Jun-15 08:37N 57°03' E 009°56'0 0.0
2018-Jun-15 08:25N 57°03' E 009°56'0 0.1
2018-Jun-15 05:55N 57°03' E 009°55'0 0.0
2018-Jun-15 05:28N 57°03' E 009°55'0 0.0
2018-Jun-15 04:19N 57°03' E 009°55'0 0.0
2018-Jun-15 03:58N 57°03' E 009°55'0 0.0
2018-Jun-15 01:58N 57°03' E 009°55'0 0.0
2018-Jun-15 01:22N 57°03' E 009°55'0 0.0
2018-Jun-15 00:16N 57°03' E 009°55'0 0.0
2018-Jun-14 23:52N 57°03' E 009°55'0 0.0
2018-Jun-14 21:28N 57°03' E 009°55'0 0.0
2018-Jun-14 20:46N 57°03' E 009°55'0 0.0
2018-Jun-14 20:28N 57°03' E 009°55'0 0.0
2018-Jun-14 16:58N 57°03' E 009°55'0 0.0
2018-Jun-14 16:16N 57°03' E 009°55'0 0.0
2018-Jun-14 15:58N 57°03' E 009°55'0 0.0
2018-Jun-14 14:55N 57°03' E 009°55'0 0.0
2018-Jun-14 14:10N 57°03' E 009°55'0 0.0
2018-Jun-14 13:55N 57°03' E 009°55'0 0.0
2018-Jun-14 13:25N 57°03' E 009°55'0 0.0
2018-Jun-14 12:49N 57°03' E 009°55'0 0.0
2018-Jun-14 10:49N 57°03' E 009°55'0 0.0
2018-Jun-14 10:25N 57°03' E 009°55'0 0.0
2018-Jun-14 07:40N 57°03' E 009°55'0 0.0
2018-Jun-14 02:43N 57°03' E 009°55'0 0.0
2018-Jun-14 01:58N 57°03' E 009°55'0 0.0
2018-Jun-14 01:19N 57°03' E 009°55'0 0.0
2018-Jun-14 00:13N 57°03' E 009°55'0 0.0
2018-Jun-13 23:43N 57°03' E 009°55'0 0.0
2018-Jun-13 23:19N 57°03' E 009°55'0 0.0
2018-Jun-13 22:40N 57°03' E 009°55'0 0.0
2018-Jun-13 22:22N 57°03' E 009°55'0 0.0
2018-Jun-13 21:43N 57°03' E 009°55'0 0.0
2018-Jun-13 21:07N 57°03' E 009°55'0 0.0
2018-Jun-13 20:55N 57°03' E 009°55'0 0.0
2018-Jun-13 20:28N 57°03' E 009°55'0 0.0
2018-Jun-13 18:58N 57°03' E 009°55'0 0.0
2018-Jun-13 17:16N 57°03' E 009°55'0 0.0
2018-Jun-13 16:55N 57°03' E 009°55'0 0.0
2018-Jun-13 13:13N 57°03' E 009°55'0 0.0
2018-Jun-13 12:37N 57°03' E 009°55'0 0.0
2018-Jun-13 12:28N 57°03' E 009°55'0 0.0
2018-Jun-13 10:19N 57°03' E 009°55'0 0.0
2018-Jun-13 09:49N 57°03' E 009°55'0 0.0
2018-Jun-13 09:25N 57°03' E 009°55'0 0.0
2018-Jun-13 08:41N 57°03' E 009°55'0 0.1
2018-Jun-13 08:23N 57°03' E 009°55'1 2.4
2018-Jun-13 08:00N 57°03' E 009°57'3 6.1
2018-Jun-13 07:30N 57°04' E 010°02'4 8.6
2018-Jun-13 07:00N 57°01' E 010°08'4 7.8
2018-Jun-13 06:29N 56°59' E 010°14'2 0.2
2018-Jun-12 18:30N 56°59' E 010°18'0 0.0
2018-Jun-12 17:56N 56°59' E 010°18'0 0.0
2018-Jun-12 17:24N 56°59' E 010°18'0 0.0
2018-Jun-12 16:06N 56°59' E 010°18'0 0.0
2018-Jun-12 16:00N 56°59' E 010°18'0 0.1
2018-Jun-12 15:29N 56°59' E 010°18'3 6.1
2018-Jun-12 15:00N 56°58' E 010°23'103 6.0
2018-Jun-11 21:53N 55°17' E 011°04'2 4.6
2018-Jun-11 21:30N 55°15' E 011°05'2 4.4
2018-Jun-11 20:57N 55°13' E 011°06'2 4.9
2018-Jun-11 20:30N 55°11' E 011°05'3 5.3
2018-Jun-11 19:59N 55°08' E 011°03'3 5.7
2018-Jun-11 19:30N 55°05' E 011°03'3 5.9
2018-Jun-11 19:01N 55°03' E 011°02'3 5.7
2018-Jun-11 18:31N 54°60' E 011°01'3 6.7
2018-Jun-11 18:01N 54°57' E 010°58'3 6.7
2018-Jun-11 17:31N 54°54' E 010°54'3 6.0
2018-Jun-11 17:01N 54°52' E 010°53'3 5.4
2018-Jun-11 16:31N 54°49' E 010°53'3 6.0
2018-Jun-11 16:01N 54°46' E 010°52'3 5.9
2018-Jun-11 15:30N 54°43' E 010°52'3 6.2
2018-Jun-11 15:01N 54°41' E 010°48'4 7.2
2018-Jun-11 14:31N 54°39' E 010°43'3 6.3
2018-Jun-11 14:01N 54°37' E 010°38'3 6.6
2018-Jun-11 13:30N 54°35' E 010°34'19 0.8
2018-Jun-10 14:30N 54°22' E 010°09'0 0.0
2018-Jun-10 13:11N 54°22' E 010°09'0 0.0
2018-Jun-10 12:46N 54°22' E 010°09'0 0.0
2018-Jun-10 12:21N 54°22' E 010°09'0 0.1
2018-Jun-10 11:58N 54°22' E 010°09'  

Dump ship's entire track history